sensor_id;sensor_type;location;lat;lon;timestamp;P1;durP1;ratioP1;P2;durP2;ratioP2
82265;SDS011;71866;53.340;-6.308;2023-08-17T00:01:41;1.75;;;1.02;;
82265;SDS011;71866;53.340;-6.308;2023-08-17T00:04:09;3.42;;;1.27;;
82265;SDS011;71866;53.340;-6.308;2023-08-17T00:06:37;1.80;;;1.00;;
82265;SDS011;71866;53.340;-6.308;2023-08-17T00:09:04;3.28;;;1.27;;
82265;SDS011;71866;53.340;-6.308;2023-08-17T00:11:30;1.90;;;1.20;;
82265;SDS011;71866;53.340;-6.308;2023-08-17T00:13:58;2.15;;;1.02;;
82265;SDS011;71866;53.340;-6.308;2023-08-17T00:16:26;2.13;;;1.13;;
82265;SDS011;71866;53.340;-6.308;2023-08-17T00:18:54;2.55;;;1.10;;
82265;SDS011;71866;53.340;-6.308;2023-08-17T00:21:21;2.55;;;1.30;;
82265;SDS011;71866;53.340;-6.308;2023-08-17T00:23:49;2.15;;;1.40;;
82265;SDS011;71866;53.340;-6.308;2023-08-17T00:26:16;2.72;;;1.08;;
82265;SDS011;71866;53.340;-6.308;2023-08-17T00:28:42;1.52;;;1.10;;
82265;SDS011;71866;53.340;-6.308;2023-08-17T00:31:10;2.08;;;1.20;;
82265;SDS011;71866;53.340;-6.308;2023-08-17T00:33:36;5.22;;;1.40;;
82265;SDS011;71866;53.340;-6.308;2023-08-17T00:36:04;2.40;;;1.27;;
82265;SDS011;71866;53.340;-6.308;2023-08-17T00:38:31;1.90;;;1.02;;
82265;SDS011;71866;53.340;-6.308;2023-08-17T00:40:57;3.45;;;1.27;;
82265;SDS011;71866;53.340;-6.308;2023-08-17T00:43:25;2.67;;;1.38;;
82265;SDS011;71866;53.340;-6.308;2023-08-17T00:45:51;1.25;;;0.90;;
82265;SDS011;71866;53.340;-6.308;2023-08-17T00:48:19;3.20;;;1.20;;
82265;SDS011;71866;53.340;-6.308;2023-08-17T00:50:47;2.38;;;1.10;;
82265;SDS011;71866;53.340;-6.308;2023-08-17T00:53:16;2.72;;;1.17;;
82265;SDS011;71866;53.340;-6.308;2023-08-17T00:55:44;2.38;;;1.60;;
82265;SDS011;71866;53.340;-6.308;2023-08-17T00:58:13;2.58;;;1.10;;
82265;SDS011;71866;53.340;-6.308;2023-08-17T01:00:40;2.20;;;1.38;;
82265;SDS011;71866;53.340;-6.308;2023-08-17T01:03:07;1.52;;;0.98;;
82265;SDS011;71866;53.340;-6.308;2023-08-17T01:05:35;5.35;;;1.10;;
82265;SDS011;71866;53.340;-6.308;2023-08-17T01:08:01;3.05;;;1.02;;
82265;SDS011;71866;53.340;-6.308;2023-08-17T01:10:33;1.63;;;1.10;;
82265;SDS011;71866;53.340;-6.308;2023-08-17T01:13:13;1.55;;;1.10;;
82265;SDS011;71866;53.340;-6.308;2023-08-17T01:15:50;1.55;;;1.00;;
82265;SDS011;71866;53.340;-6.308;2023-08-17T01:20:48;1.38;;;0.93;;
82265;SDS011;71866;53.340;-6.308;2023-08-17T01:23:17;3.00;;;1.10;;
82265;SDS011;71866;53.340;-6.308;2023-08-17T01:25:43;2.67;;;1.05;;
82265;SDS011;71866;53.340;-6.308;2023-08-17T01:28:11;2.80;;;0.98;;
82265;SDS011;71866;53.340;-6.308;2023-08-17T01:30:49;2.65;;;0.90;;
82265;SDS011;71866;53.340;-6.308;2023-08-17T01:33:40;1.50;;;1.30;;
82265;SDS011;71866;53.340;-6.308;2023-08-17T01:36:18;1.50;;;0.88;;
82265;SDS011;71866;53.340;-6.308;2023-08-17T01:38:49;2.40;;;0.75;;
82265;SDS011;71866;53.340;-6.308;2023-08-17T01:41:18;2.20;;;0.95;;
82265;SDS011;71866;53.340;-6.308;2023-08-17T01:43:48;2.10;;;1.10;;
82265;SDS011;71866;53.340;-6.308;2023-08-17T01:46:15;2.90;;;1.00;;
82265;SDS011;71866;53.340;-6.308;2023-08-17T01:48:44;3.38;;;1.20;;
82265;SDS011;71866;53.340;-6.308;2023-08-17T01:51:16;2.53;;;0.80;;
82265;SDS011;71866;53.340;-6.308;2023-08-17T01:53:45;3.05;;;1.00;;
82265;SDS011;71866;53.340;-6.308;2023-08-17T01:56:13;0.93;;;0.82;;
82265;SDS011;71866;53.340;-6.308;2023-08-17T01:58:41;2.92;;;1.17;;
82265;SDS011;71866;53.340;-6.308;2023-08-17T02:01:08;2.08;;;1.00;;
82265;SDS011;71866;53.340;-6.308;2023-08-17T02:03:36;1.67;;;1.00;;
82265;SDS011;71866;53.340;-6.308;2023-08-17T02:06:03;1.77;;;1.00;;
82265;SDS011;71866;53.340;-6.308;2023-08-17T02:08:33;2.05;;;1.23;;
82265;SDS011;71866;53.340;-6.308;2023-08-17T02:10:59;2.45;;;0.93;;
82265;SDS011;71866;53.340;-6.308;2023-08-17T02:13:27;1.58;;;0.80;;
82265;SDS011;71866;53.340;-6.308;2023-08-17T02:15:54;2.50;;;1.17;;
82265;SDS011;71866;53.340;-6.308;2023-08-17T02:18:21;1.52;;;1.10;;
82265;SDS011;71866;53.340;-6.308;2023-08-17T02:20:48;2.55;;;1.00;;
82265;SDS011;71866;53.340;-6.308;2023-08-17T02:23:15;2.30;;;1.10;;
82265;SDS011;71866;53.340;-6.308;2023-08-17T02:25:43;3.75;;;1.00;;
82265;SDS011;71866;53.340;-6.308;2023-08-17T02:28:10;2.03;;;1.30;;
82265;SDS011;71866;53.340;-6.308;2023-08-17T02:30:37;1.98;;;1.27;;
82265;SDS011;71866;53.340;-6.308;2023-08-17T02:33:04;2.80;;;1.20;;
82265;SDS011;71866;53.340;-6.308;2023-08-17T02:35:30;1.90;;;1.10;;
82265;SDS011;71866;53.340;-6.308;2023-08-17T02:37:58;3.83;;;1.25;;
82265;SDS011;71866;53.340;-6.308;2023-08-17T02:40:25;3.17;;;1.20;;
82265;SDS011;71866;53.340;-6.308;2023-08-17T02:42:52;1.95;;;0.88;;
82265;SDS011;71866;53.340;-6.308;2023-08-17T02:45:19;4.57;;;1.50;;
82265;SDS011;71866;53.340;-6.308;2023-08-17T02:47:47;7.50;;;1.15;;
82265;SDS011;71866;53.340;-6.308;2023-08-17T02:50:13;3.78;;;0.95;;
82265;SDS011;71866;53.340;-6.308;2023-08-17T02:52:42;2.75;;;1.10;;
82265;SDS011;71866;53.340;-6.308;2023-08-17T02:55:08;2.05;;;0.98;;
82265;SDS011;71866;53.340;-6.308;2023-08-17T02:57:36;3.72;;;1.00;;
82265;SDS011;71866;53.340;-6.308;2023-08-17T03:00:03;2.65;;;1.10;;
82265;SDS011;71866;53.340;-6.308;2023-08-17T03:02:30;3.40;;;1.15;;
82265;SDS011;71866;53.340;-6.308;2023-08-17T03:04:57;3.75;;;1.10;;
82265;SDS011;71866;53.340;-6.308;2023-08-17T03:07:24;1.50;;;1.10;;
82265;SDS011;71866;53.340;-6.308;2023-08-17T03:09:52;2.00;;;0.82;;
82265;SDS011;71866;53.340;-6.308;2023-08-17T03:12:19;2.55;;;1.00;;
82265;SDS011;71866;53.340;-6.308;2023-08-17T03:14:45;1.98;;;0.82;;
82265;SDS011;71866;53.340;-6.308;2023-08-17T03:17:13;2.25;;;1.10;;
82265;SDS011;71866;53.340;-6.308;2023-08-17T03:19:40;4.68;;;0.98;;
82265;SDS011;71866;53.340;-6.308;2023-08-17T03:22:07;3.13;;;0.90;;
82265;SDS011;71866;53.340;-6.308;2023-08-17T03:24:34;2.53;;;1.10;;
82265;SDS011;71866;53.340;-6.308;2023-08-17T03:27:02;2.13;;;1.20;;
82265;SDS011;71866;53.340;-6.308;2023-08-17T03:29:28;4.57;;;2.08;;
82265;SDS011;71866;53.340;-6.308;2023-08-17T03:31:55;3.67;;;1.10;;
82265;SDS011;71866;53.340;-6.308;2023-08-17T03:34:22;2.08;;;0.93;;
82265;SDS011;71866;53.340;-6.308;2023-08-17T03:36:49;2.75;;;1.23;;
82265;SDS011;71866;53.340;-6.308;2023-08-17T03:39:17;2.17;;;1.00;;
82265;SDS011;71866;53.340;-6.308;2023-08-17T03:41:45;1.65;;;1.00;;
82265;SDS011;71866;53.340;-6.308;2023-08-17T03:44:11;1.30;;;1.00;;
82265;SDS011;71866;53.340;-6.308;2023-08-17T03:46:38;3.05;;;0.82;;
82265;SDS011;71866;53.340;-6.308;2023-08-17T03:49:05;2.08;;;0.93;;
82265;SDS011;71866;53.340;-6.308;2023-08-17T03:51:33;2.15;;;0.88;;
82265;SDS011;71866;53.340;-6.308;2023-08-17T03:54:01;1.90;;;1.00;;
82265;SDS011;71866;53.340;-6.308;2023-08-17T03:56:27;2.08;;;1.10;;
82265;SDS011;71866;53.340;-6.308;2023-08-17T03:58:55;2.53;;;0.85;;
82265;SDS011;71866;53.340;-6.308;2023-08-17T04:01:21;1.92;;;0.95;;
82265;SDS011;71866;53.340;-6.308;2023-08-17T04:03:49;1.80;;;1.15;;
82265;SDS011;71866;53.340;-6.308;2023-08-17T04:06:16;2.00;;;0.80;;
82265;SDS011;71866;53.340;-6.308;2023-08-17T04:08:43;3.88;;;1.23;;
82265;SDS011;71866;53.340;-6.308;2023-08-17T04:11:10;4.57;;;1.00;;
82265;SDS011;71866;53.340;-6.308;2023-08-17T04:13:38;1.92;;;1.10;;
82265;SDS011;71866;53.340;-6.308;2023-08-17T04:16:04;3.10;;;1.00;;
82265;SDS011;71866;53.340;-6.308;2023-08-17T04:18:32;1.52;;;1.00;;
82265;SDS011;71866;53.340;-6.308;2023-08-17T04:20:58;2.70;;;0.98;;
82265;SDS011;71866;53.340;-6.308;2023-08-17T04:23:25;1.55;;;1.00;;
82265;SDS011;71866;53.340;-6.308;2023-08-17T04:25:53;1.42;;;1.02;;
82265;SDS011;71866;53.340;-6.308;2023-08-17T04:28:20;3.28;;;1.05;;
82265;SDS011;71866;53.340;-6.308;2023-08-17T04:30:47;2.58;;;1.23;;
82265;SDS011;71866;53.340;-6.308;2023-08-17T04:33:14;4.38;;;1.52;;
82265;SDS011;71866;53.340;-6.308;2023-08-17T04:35:42;2.58;;;1.30;;
82265;SDS011;71866;53.340;-6.308;2023-08-17T04:38:09;4.30;;;1.33;;
82265;SDS011;71866;53.340;-6.308;2023-08-17T04:40:37;1.92;;;1.05;;
82265;SDS011;71866;53.340;-6.308;2023-08-17T04:43:04;2.47;;;1.10;;
82265;SDS011;71866;53.340;-6.308;2023-08-17T04:45:32;5.80;;;1.20;;
82265;SDS011;71866;53.340;-6.308;2023-08-17T04:48:00;2.47;;;1.00;;
82265;SDS011;71866;53.340;-6.308;2023-08-17T04:50:26;3.28;;;1.10;;
82265;SDS011;71866;53.340;-6.308;2023-08-17T04:52:54;2.67;;;0.98;;
82265;SDS011;71866;53.340;-6.308;2023-08-17T04:55:21;1.73;;;0.95;;
82265;SDS011;71866;53.340;-6.308;2023-08-17T04:57:47;3.65;;;1.13;;
82265;SDS011;71866;53.340;-6.308;2023-08-17T05:00:15;5.60;;;1.33;;
82265;SDS011;71866;53.340;-6.308;2023-08-17T05:02:43;3.45;;;1.25;;
82265;SDS011;71866;53.340;-6.308;2023-08-17T05:05:10;2.35;;;1.08;;
82265;SDS011;71866;53.340;-6.308;2023-08-17T05:07:38;2.63;;;1.20;;
82265;SDS011;71866;53.340;-6.308;2023-08-17T05:10:04;3.22;;;1.02;;
82265;SDS011;71866;53.340;-6.308;2023-08-17T05:12:32;1.65;;;1.10;;
82265;SDS011;71866;53.340;-6.308;2023-08-17T05:14:59;3.08;;;1.20;;
82265;SDS011;71866;53.340;-6.308;2023-08-17T05:17:27;2.55;;;1.30;;
82265;SDS011;71866;53.340;-6.308;2023-08-17T05:19:54;3.40;;;1.15;;
82265;SDS011;71866;53.340;-6.308;2023-08-17T05:22:20;1.98;;;1.00;;
82265;SDS011;71866;53.340;-6.308;2023-08-17T05:24:48;3.17;;;1.08;;
82265;SDS011;71866;53.340;-6.308;2023-08-17T05:27:15;1.67;;;1.13;;
82265;SDS011;71866;53.340;-6.308;2023-08-17T05:29:43;4.28;;;1.15;;
82265;SDS011;71866;53.340;-6.308;2023-08-17T05:32:09;6.20;;;1.30;;
82265;SDS011;71866;53.340;-6.308;2023-08-17T05:34:37;1.98;;;1.42;;
82265;SDS011;71866;53.340;-6.308;2023-08-17T05:37:03;3.35;;;1.08;;
82265;SDS011;71866;53.340;-6.308;2023-08-17T05:39:31;3.15;;;1.30;;
82265;SDS011;71866;53.340;-6.308;2023-08-17T05:42:01;4.50;;;1.02;;
82265;SDS011;71866;53.340;-6.308;2023-08-17T05:44:29;3.72;;;1.20;;
82265;SDS011;71866;53.340;-6.308;2023-08-17T05:46:57;2.90;;;1.30;;
82265;SDS011;71866;53.340;-6.308;2023-08-17T05:49:23;4.28;;;1.55;;
82265;SDS011;71866;53.340;-6.308;2023-08-17T05:51:51;2.97;;;1.48;;
82265;SDS011;71866;53.340;-6.308;2023-08-17T05:54:17;4.18;;;1.23;;
82265;SDS011;71866;53.340;-6.308;2023-08-17T05:56:44;2.80;;;1.33;;
82265;SDS011;71866;53.340;-6.308;2023-08-17T05:59:12;2.17;;;1.08;;
82265;SDS011;71866;53.340;-6.308;2023-08-17T06:01:39;3.90;;;1.52;;
82265;SDS011;71866;53.340;-6.308;2023-08-17T06:04:06;3.15;;;0.90;;
82265;SDS011;71866;53.340;-6.308;2023-08-17T06:06:34;4.53;;;1.10;;
82265;SDS011;71866;53.340;-6.308;2023-08-17T06:09:02;4.97;;;1.00;;
82265;SDS011;71866;53.340;-6.308;2023-08-17T06:11:28;2.47;;;1.35;;
82265;SDS011;71866;53.340;-6.308;2023-08-17T06:13:55;3.13;;;1.17;;
82265;SDS011;71866;53.340;-6.308;2023-08-17T06:16:22;3.10;;;1.33;;
82265;SDS011;71866;53.340;-6.308;2023-08-17T06:18:49;3.95;;;1.10;;
82265;SDS011;71866;53.340;-6.308;2023-08-17T06:21:17;4.78;;;1.30;;
82265;SDS011;71866;53.340;-6.308;2023-08-17T06:23:44;4.32;;;1.30;;
82265;SDS011;71866;53.340;-6.308;2023-08-17T06:26:10;3.83;;;1.10;;
82265;SDS011;71866;53.340;-6.308;2023-08-17T06:28:38;4.53;;;1.23;;
82265;SDS011;71866;53.340;-6.308;2023-08-17T06:31:10;3.55;;;1.20;;
82265;SDS011;71866;53.340;-6.308;2023-08-17T06:33:48;4.80;;;1.55;;
82265;SDS011;71866;53.340;-6.308;2023-08-17T06:36:15;1.98;;;0.93;;
82265;SDS011;71866;53.340;-6.308;2023-08-17T06:38:42;4.95;;;1.20;;
82265;SDS011;71866;53.340;-6.308;2023-08-17T06:41:09;2.28;;;1.10;;
82265;SDS011;71866;53.340;-6.308;2023-08-17T06:43:36;3.75;;;1.10;;
82265;SDS011;71866;53.340;-6.308;2023-08-17T06:46:03;2.90;;;1.17;;
82265;SDS011;71866;53.340;-6.308;2023-08-17T06:48:30;2.60;;;1.05;;
82265;SDS011;71866;53.340;-6.308;2023-08-17T06:50:58;5.68;;;1.10;;
82265;SDS011;71866;53.340;-6.308;2023-08-17T06:53:24;10.63;;;1.58;;
82265;SDS011;71866;53.340;-6.308;2023-08-17T06:55:51;5.55;;;1.23;;
82265;SDS011;71866;53.340;-6.308;2023-08-17T06:58:19;3.72;;;1.40;;
82265;SDS011;71866;53.340;-6.308;2023-08-17T07:00:45;4.53;;;1.35;;
82265;SDS011;71866;53.340;-6.308;2023-08-17T07:05:40;3.75;;;1.25;;
82265;SDS011;71866;53.340;-6.308;2023-08-17T07:08:08;3.80;;;1.27;;
82265;SDS011;71866;53.340;-6.308;2023-08-17T07:10:35;2.05;;;1.17;;
82265;SDS011;71866;53.340;-6.308;2023-08-17T07:13:01;2.80;;;1.20;;
82265;SDS011;71866;53.340;-6.308;2023-08-17T07:15:30;5.47;;;1.10;;
82265;SDS011;71866;53.340;-6.308;2023-08-17T07:20:25;1.52;;;0.98;;
82265;SDS011;71866;53.340;-6.308;2023-08-17T07:22:52;3.22;;;1.30;;
82265;SDS011;71866;53.340;-6.308;2023-08-17T07:25:20;1.88;;;0.95;;
82265;SDS011;71866;53.340;-6.308;2023-08-17T07:27:46;3.53;;;0.80;;
82265;SDS011;71866;53.340;-6.308;2023-08-17T07:30:14;3.90;;;1.13;;
82265;SDS011;71866;53.340;-6.308;2023-08-17T07:32:40;4.43;;;1.02;;
82265;SDS011;71866;53.340;-6.308;2023-08-17T07:35:08;6.47;;;1.50;;
82265;SDS011;71866;53.340;-6.308;2023-08-17T07:37:35;10.77;;;2.00;;
82265;SDS011;71866;53.340;-6.308;2023-08-17T07:40:03;11.57;;;1.83;;
82265;SDS011;71866;53.340;-6.308;2023-08-17T07:42:30;4.75;;;1.45;;
82265;SDS011;71866;53.340;-6.308;2023-08-17T07:44:58;4.70;;;1.02;;
82265;SDS011;71866;53.340;-6.308;2023-08-17T07:47:25;5.05;;;1.20;;
82265;SDS011;71866;53.340;-6.308;2023-08-17T07:49:53;2.22;;;1.08;;
82265;SDS011;71866;53.340;-6.308;2023-08-17T07:52:19;3.60;;;1.00;;
82265;SDS011;71866;53.340;-6.308;2023-08-17T07:54:47;6.80;;;1.50;;
82265;SDS011;71866;53.340;-6.308;2023-08-17T07:57:14;4.32;;;1.35;;
82265;SDS011;71866;53.340;-6.308;2023-08-17T07:59:42;4.78;;;1.08;;
82265;SDS011;71866;53.340;-6.308;2023-08-17T08:02:08;5.50;;;1.17;;
82265;SDS011;71866;53.340;-6.308;2023-08-17T08:04:36;3.47;;;0.93;;
82265;SDS011;71866;53.340;-6.308;2023-08-17T08:07:02;6.18;;;1.10;;
82265;SDS011;71866;53.340;-6.308;2023-08-17T08:09:29;4.65;;;1.10;;
82265;SDS011;71866;53.340;-6.308;2023-08-17T08:11:57;5.07;;;1.98;;
82265;SDS011;71866;53.340;-6.308;2023-08-17T08:14:23;3.05;;;0.90;;
82265;SDS011;71866;53.340;-6.308;2023-08-17T08:16:51;4.78;;;1.02;;
82265;SDS011;71866;53.340;-6.308;2023-08-17T08:19:18;3.72;;;1.13;;
82265;SDS011;71866;53.340;-6.308;2023-08-17T08:21:45;4.75;;;0.90;;
82265;SDS011;71866;53.340;-6.308;2023-08-17T08:24:12;4.90;;;1.30;;
82265;SDS011;71866;53.340;-6.308;2023-08-17T08:26:52;2.70;;;0.90;;
82265;SDS011;71866;53.340;-6.308;2023-08-17T08:29:19;4.95;;;1.05;;
82265;SDS011;71866;53.340;-6.308;2023-08-17T08:31:46;3.35;;;0.90;;
82265;SDS011;71866;53.340;-6.308;2023-08-17T08:34:14;2.92;;;0.98;;
82265;SDS011;71866;53.340;-6.308;2023-08-17T08:36:40;5.25;;;1.10;;
82265;SDS011;71866;53.340;-6.308;2023-08-17T08:39:07;2.72;;;0.90;;
82265;SDS011;71866;53.340;-6.308;2023-08-17T08:41:34;3.58;;;1.30;;
82265;SDS011;71866;53.340;-6.308;2023-08-17T08:44:02;8.15;;;1.20;;
82265;SDS011;71866;53.340;-6.308;2023-08-17T08:46:30;3.15;;;1.20;;
82265;SDS011;71866;53.340;-6.308;2023-08-17T08:48:58;5.18;;;1.17;;
82265;SDS011;71866;53.340;-6.308;2023-08-17T08:51:27;2.63;;;1.50;;
82265;SDS011;71866;53.340;-6.308;2023-08-17T08:54:01;2.20;;;0.95;;
82265;SDS011;71866;53.340;-6.308;2023-08-17T08:56:32;4.75;;;1.00;;
82265;SDS011;71866;53.340;-6.308;2023-08-17T08:59:01;3.92;;;1.02;;
82265;SDS011;71866;53.340;-6.308;2023-08-17T09:01:28;2.53;;;0.90;;
82265;SDS011;71866;53.340;-6.308;2023-08-17T09:04:00;5.53;;;1.20;;
82265;SDS011;71866;53.340;-6.308;2023-08-17T09:06:31;2.10;;;0.93;;
82265;SDS011;71866;53.340;-6.308;2023-08-17T09:09:00;5.32;;;1.15;;
82265;SDS011;71866;53.340;-6.308;2023-08-17T09:11:28;3.42;;;0.80;;
82265;SDS011;71866;53.340;-6.308;2023-08-17T09:13:54;4.53;;;1.10;;
82265;SDS011;71866;53.340;-6.308;2023-08-17T09:16:22;3.78;;;0.98;;
82265;SDS011;71866;53.340;-6.308;2023-08-17T09:18:52;4.50;;;1.45;;
82265;SDS011;71866;53.340;-6.308;2023-08-17T09:21:19;5.45;;;1.50;;
82265;SDS011;71866;53.340;-6.308;2023-08-17T09:23:53;3.15;;;1.00;;
82265;SDS011;71866;53.340;-6.308;2023-08-17T09:26:24;2.40;;;1.00;;
82265;SDS011;71866;53.340;-6.308;2023-08-17T09:28:51;2.85;;;1.00;;
82265;SDS011;71866;53.340;-6.308;2023-08-17T09:31:21;4.10;;;1.08;;
82265;SDS011;71866;53.340;-6.308;2023-08-17T09:33:52;3.97;;;1.33;;
82265;SDS011;71866;53.340;-6.308;2023-08-17T09:36:22;3.92;;;1.23;;
82265;SDS011;71866;53.340;-6.308;2023-08-17T09:38:51;4.80;;;1.23;;
82265;SDS011;71866;53.340;-6.308;2023-08-17T09:41:18;2.50;;;1.10;;
82265;SDS011;71866;53.340;-6.308;2023-08-17T09:43:45;3.92;;;1.10;;
82265;SDS011;71866;53.340;-6.308;2023-08-17T09:46:14;4.63;;;1.50;;
82265;SDS011;71866;53.340;-6.308;2023-08-17T09:48:43;3.80;;;1.50;;
82265;SDS011;71866;53.340;-6.308;2023-08-17T09:51:10;1.63;;;1.35;;
82265;SDS011;71866;53.340;-6.308;2023-08-17T09:53:37;3.70;;;1.40;;
82265;SDS011;71866;53.340;-6.308;2023-08-17T09:56:04;4.63;;;1.55;;
82265;SDS011;71866;53.340;-6.308;2023-08-17T09:58:33;3.95;;;1.65;;
82265;SDS011;71866;53.340;-6.308;2023-08-17T10:01:01;3.95;;;1.50;;
82265;SDS011;71866;53.340;-6.308;2023-08-17T10:03:33;2.25;;;1.40;;
82265;SDS011;71866;53.340;-6.308;2023-08-17T10:06:04;5.55;;;1.73;;
82265;SDS011;71866;53.340;-6.308;2023-08-17T10:08:33;7.80;;;1.80;;
82265;SDS011;71866;53.340;-6.308;2023-08-17T10:11:06;4.22;;;1.67;;
82265;SDS011;71866;53.340;-6.308;2023-08-17T10:16:21;3.75;;;1.83;;
82265;SDS011;71866;53.340;-6.308;2023-08-17T10:19:15;4.07;;;2.20;;
82265;SDS011;71866;53.340;-6.308;2023-08-17T10:24:26;3.25;;;1.90;;
82265;SDS011;71866;53.340;-6.308;2023-08-17T10:26:55;5.18;;;1.52;;
82265;SDS011;71866;53.340;-6.308;2023-08-17T10:29:22;7.90;;;2.15;;
82265;SDS011;71866;53.340;-6.308;2023-08-17T10:31:51;4.10;;;1.52;;
82265;SDS011;71866;53.340;-6.308;2023-08-17T10:34:18;4.57;;;1.55;;
82265;SDS011;71866;53.340;-6.308;2023-08-17T10:36:46;3.28;;;1.50;;
82265;SDS011;71866;53.340;-6.308;2023-08-17T10:41:55;5.22;;;2.45;;
82265;SDS011;71866;53.340;-6.308;2023-08-17T10:44:39;6.18;;;1.90;;
82265;SDS011;71866;53.340;-6.308;2023-08-17T10:49:48;4.18;;;1.70;;
82265;SDS011;71866;53.340;-6.308;2023-08-17T10:52:24;5.53;;;2.20;;
82265;SDS011;71866;53.340;-6.308;2023-08-17T10:54:56;8.15;;;2.25;;
82265;SDS011;71866;53.340;-6.308;2023-08-17T11:02:54;4.18;;;1.80;;
82265;SDS011;71866;53.340;-6.308;2023-08-17T11:05:39;4.60;;;1.80;;
82265;SDS011;71866;53.340;-6.308;2023-08-17T11:08:23;3.17;;;1.60;;
82265;SDS011;71866;53.340;-6.308;2023-08-17T11:11:08;7.93;;;2.40;;
82265;SDS011;71866;53.340;-6.308;2023-08-17T11:13:37;6.30;;;1.77;;
82265;SDS011;71866;53.340;-6.308;2023-08-17T11:16:07;3.63;;;1.65;;
82265;SDS011;71866;53.340;-6.308;2023-08-17T11:18:36;6.05;;;1.90;;
82265;SDS011;71866;53.340;-6.308;2023-08-17T11:21:04;3.35;;;1.92;;
82265;SDS011;71866;53.340;-6.308;2023-08-17T11:23:33;3.30;;;2.08;;
82265;SDS011;71866;53.340;-6.308;2023-08-17T11:26:00;5.07;;;1.80;;
82265;SDS011;71866;53.340;-6.308;2023-08-17T11:28:31;3.67;;;1.75;;
82265;SDS011;71866;53.340;-6.308;2023-08-17T11:31:00;5.10;;;1.70;;
82265;SDS011;71866;53.340;-6.308;2023-08-17T11:33:29;6.80;;;2.20;;
82265;SDS011;71866;53.340;-6.308;2023-08-17T11:35:58;3.85;;;1.70;;
82265;SDS011;71866;53.340;-6.308;2023-08-17T11:40:59;5.32;;;1.80;;
82265;SDS011;71866;53.340;-6.308;2023-08-17T11:43:28;2.53;;;1.75;;
82265;SDS011;71866;53.340;-6.308;2023-08-17T11:45:55;5.15;;;1.83;;
82265;SDS011;71866;53.340;-6.308;2023-08-17T11:48:24;4.80;;;1.85;;
82265;SDS011;71866;53.340;-6.308;2023-08-17T11:50:51;6.53;;;2.20;;
82265;SDS011;71866;53.340;-6.308;2023-08-17T11:53:18;4.28;;;2.30;;
82265;SDS011;71866;53.340;-6.308;2023-08-17T11:55:45;4.50;;;1.65;;
82265;SDS011;71866;53.340;-6.308;2023-08-17T11:58:14;4.95;;;2.22;;
82265;SDS011;71866;53.340;-6.308;2023-08-17T12:00:42;5.13;;;2.00;;
82265;SDS011;71866;53.340;-6.308;2023-08-17T12:03:18;4.90;;;2.03;;
82265;SDS011;71866;53.340;-6.308;2023-08-17T12:05:46;3.25;;;2.00;;
82265;SDS011;71866;53.340;-6.308;2023-08-17T12:08:13;3.00;;;1.95;;
82265;SDS011;71866;53.340;-6.308;2023-08-17T12:10:40;8.68;;;2.67;;
82265;SDS011;71866;53.340;-6.308;2023-08-17T12:13:10;11.82;;;5.90;;
82265;SDS011;71866;53.340;-6.308;2023-08-17T12:15:38;5.78;;;2.10;;
82265;SDS011;71866;53.340;-6.308;2023-08-17T12:18:05;2.63;;;2.28;;
82265;SDS011;71866;53.340;-6.308;2023-08-17T12:20:33;4.63;;;2.28;;
82265;SDS011;71866;53.340;-6.308;2023-08-17T12:23:00;3.47;;;2.30;;
82265;SDS011;71866;53.340;-6.308;2023-08-17T12:25:29;6.70;;;2.35;;
82265;SDS011;71866;53.340;-6.308;2023-08-17T12:27:57;4.88;;;2.38;;
82265;SDS011;71866;53.340;-6.308;2023-08-17T12:30:27;7.18;;;2.40;;
82265;SDS011;71866;53.340;-6.308;2023-08-17T12:32:55;5.13;;;2.65;;
82265;SDS011;71866;53.340;-6.308;2023-08-17T12:35:24;6.90;;;2.80;;
82265;SDS011;71866;53.340;-6.308;2023-08-17T12:37:53;4.55;;;3.30;;
82265;SDS011;71866;53.340;-6.308;2023-08-17T12:40:20;5.57;;;2.85;;
82265;SDS011;71866;53.340;-6.308;2023-08-17T12:42:48;6.45;;;2.75;;
82265;SDS011;71866;53.340;-6.308;2023-08-17T12:45:16;7.65;;;3.10;;
82265;SDS011;71866;53.340;-6.308;2023-08-17T12:47:44;5.28;;;3.33;;
82265;SDS011;71866;53.340;-6.308;2023-08-17T12:50:10;7.13;;;2.67;;
82265;SDS011;71866;53.340;-6.308;2023-08-17T12:52:37;9.30;;;3.13;;
82265;SDS011;71866;53.340;-6.308;2023-08-17T12:55:05;5.07;;;2.72;;
82265;SDS011;71866;53.340;-6.308;2023-08-17T12:57:32;5.03;;;2.63;;
82265;SDS011;71866;53.340;-6.308;2023-08-17T12:59:59;8.13;;;3.15;;
82265;SDS011;71866;53.340;-6.308;2023-08-17T13:02:27;4.25;;;2.72;;
82265;SDS011;71866;53.340;-6.308;2023-08-17T13:04:54;5.85;;;3.22;;
82265;SDS011;71866;53.340;-6.308;2023-08-17T13:07:21;8.55;;;3.03;;
82265;SDS011;71866;53.340;-6.308;2023-08-17T13:09:49;6.53;;;3.35;;
82265;SDS011;71866;53.340;-6.308;2023-08-17T13:12:17;6.63;;;3.20;;
82265;SDS011;71866;53.340;-6.308;2023-08-17T13:14:43;9.30;;;3.42;;
82265;SDS011;71866;53.340;-6.308;2023-08-17T13:17:12;7.35;;;3.08;;
82265;SDS011;71866;53.340;-6.308;2023-08-17T13:19:38;9.48;;;2.83;;
82265;SDS011;71866;53.340;-6.308;2023-08-17T13:22:05;4.45;;;2.85;;
82265;SDS011;71866;53.340;-6.308;2023-08-17T13:24:33;4.55;;;2.88;;
82265;SDS011;71866;53.340;-6.308;2023-08-17T13:27:00;9.13;;;3.03;;
82265;SDS011;71866;53.340;-6.308;2023-08-17T13:29:28;6.38;;;2.75;;
82265;SDS011;71866;53.340;-6.308;2023-08-17T13:31:55;6.40;;;2.70;;
82265;SDS011;71866;53.340;-6.308;2023-08-17T13:34:22;5.88;;;2.83;;
82265;SDS011;71866;53.340;-6.308;2023-08-17T13:36:49;7.53;;;2.67;;
82265;SDS011;71866;53.340;-6.308;2023-08-17T13:39:15;7.82;;;2.70;;
82265;SDS011;71866;53.340;-6.308;2023-08-17T13:41:43;4.75;;;3.00;;
82265;SDS011;71866;53.340;-6.308;2023-08-17T13:44:10;4.75;;;2.83;;
82265;SDS011;71866;53.340;-6.308;2023-08-17T13:46:37;7.13;;;2.88;;
82265;SDS011;71866;53.340;-6.308;2023-08-17T13:49:06;4.70;;;2.65;;
82265;SDS011;71866;53.340;-6.308;2023-08-17T13:51:34;5.82;;;2.88;;
82265;SDS011;71866;53.340;-6.308;2023-08-17T13:54:01;4.35;;;2.70;;
82265;SDS011;71866;53.340;-6.308;2023-08-17T13:56:29;5.25;;;3.58;;
82265;SDS011;71866;53.340;-6.308;2023-08-17T13:58:56;7.00;;;2.42;;
82265;SDS011;71866;53.340;-6.308;2023-08-17T14:01:22;8.15;;;3.08;;
82265;SDS011;71866;53.340;-6.308;2023-08-17T14:03:50;7.53;;;3.45;;
82265;SDS011;71866;53.340;-6.308;2023-08-17T14:06:17;4.00;;;2.70;;
82265;SDS011;71866;53.340;-6.308;2023-08-17T14:08:44;8.80;;;2.88;;
82265;SDS011;71866;53.340;-6.308;2023-08-17T14:11:11;7.97;;;3.20;;
82265;SDS011;71866;53.340;-6.308;2023-08-17T14:13:39;7.07;;;2.47;;
82265;SDS011;71866;53.340;-6.308;2023-08-17T14:16:05;7.35;;;2.58;;
82265;SDS011;71866;53.340;-6.308;2023-08-17T14:18:33;5.35;;;3.03;;
82265;SDS011;71866;53.340;-6.308;2023-08-17T14:21:00;5.10;;;3.30;;
82265;SDS011;71866;53.340;-6.308;2023-08-17T14:23:26;6.00;;;4.40;;
82265;SDS011;71866;53.340;-6.308;2023-08-17T14:25:54;5.65;;;2.95;;
82265;SDS011;71866;53.340;-6.308;2023-08-17T14:28:20;5.35;;;2.75;;
82265;SDS011;71866;53.340;-6.308;2023-08-17T14:30:48;6.35;;;2.95;;
82265;SDS011;71866;53.340;-6.308;2023-08-17T14:33:18;5.28;;;2.80;;
82265;SDS011;71866;53.340;-6.308;2023-08-17T14:35:46;5.78;;;2.90;;
82265;SDS011;71866;53.340;-6.308;2023-08-17T14:38:13;7.18;;;2.85;;
82265;SDS011;71866;53.340;-6.308;2023-08-17T14:40:44;6.65;;;3.53;;
82265;SDS011;71866;53.340;-6.308;2023-08-17T14:43:12;6.38;;;3.53;;
82265;SDS011;71866;53.340;-6.308;2023-08-17T14:45:39;5.97;;;3.30;;
82265;SDS011;71866;53.340;-6.308;2023-08-17T14:48:08;5.70;;;3.08;;
82265;SDS011;71866;53.340;-6.308;2023-08-17T14:50:36;7.20;;;3.22;;
82265;SDS011;71866;53.340;-6.308;2023-08-17T14:53:03;9.05;;;3.97;;
82265;SDS011;71866;53.340;-6.308;2023-08-17T14:55:32;5.07;;;3.15;;
82265;SDS011;71866;53.340;-6.308;2023-08-17T15:00:29;8.13;;;3.25;;
82265;SDS011;71866;53.340;-6.308;2023-08-17T15:02:59;10.40;;;3.95;;
82265;SDS011;71866;53.340;-6.308;2023-08-17T15:05:27;10.55;;;3.25;;
82265;SDS011;71866;53.340;-6.308;2023-08-17T15:07:55;6.10;;;3.25;;